Flight Number: EUR2439 Duration: 6:00
Departure: Dubai Int'l (OMDB) at 08:00 Distance: 2463 Nm
Arrival: Munich Int'l (EDDM) at 14:00 Equipment: B777

Weather Information
Dubai International Airport, United Arab Emirates (OMDB) 25-15N 055-20E 5M May 24, 2018 - 05:00 PM EDT / 2018.05.24 2100 UTC
Wind: from the E (090 degrees) at 6 MPH (5 KT) (direction variable):0
Visibility: greater than 7 mile(s):0 Temperature: 89 F (32 C) Dew Point: 64 F (18 C) Relative Humidity: 43% Pressure (altimeter): 29.65 in. Hg (1004 hPa)
ob: OMDB 242100Z 09005KT 060V130 CAVOK 32/18 Q1004 NOSIG cycle: 21
Sunrise: 01:32 Sunset: 14:58 (UTC)

Munchen, Germany (EDDM) 48-21N 011-47E May 24, 2018 - 05:20 PM EDT / 2018.05.24 2120 UTC
Wind: from the SSW (210 degrees) at 7 MPH (6 KT):0
Visibility: 5 mile(s):0
Sky conditions: mostly cloudy Weather: rain with thunder; Cumulonimbus clouds observed Temperature: 59 F (15 C) Dew Point: 55 F (13 C) Relative Humidity: 87% Pressure (altimeter): 30.09 in. Hg (1019 hPa)
ob: EDDM 242120Z 21006KT 9000 TSRA FEW010 SCT022CB BKN080 15/13 Q1019 RESHGR BECMG NSW cycle: 21
Sunrise: 03:26 Sunset: 18:53 (UTC)

TAF:2018/05/24 18:27 TAF EDDM 241700Z 2418/2524 VRB03KT 9999 SCT025 PROB40 TEMPO 2418/2422 30015G25KT 3000 TSRA SCT010 BKN020CB PROB40 TEMPO 2502/2506 0700 FG PROB30 TEMPO 2506/2508 3000 BR BKN005 BECMG 2508/2510 34005KT PROB30 TEMPO 2512/2517 TSRA SCT030CB BECMG 2513/2515 05007KT

Previous Pireps for this route
Date Aircraft Flight time Fuel used Landing rate On time
2012-08-14A3405.35703870Yes
2012-11-02A34006.44112308-462No
2013-01-23A3405.3067954.70Yes
2013-01-29A3405.3063527.80Yes
2015-07-02B7776.231057580Charter
2016-02-29B77706.261211060Yes
2016-03-13B7776,30111918-312No
2016-10-07B77706.08100062-207Yes
2016-10-16B77706.07120485-347No
2016-11-01B77706.09130278-469Yes
(pireps marked green are flown by you)

Route map